Pagrindinis puslapis
METAR-TAF:

METAR-TAF

Oro uostai :

Asuanas, Egiptas

platuma: 23-58N, ilguma: 032-47E, Aukštis: 200 m

Dabartinis oras

Ataskaita buvo paskelbta 2 valandos ir 11 minutes, ne 17:00 UTC
Vėjas 11 kt iš Šiaurės
Temperatūra 30°C
Drėgmė 21%
Slėgis 1016 hPa
Matomumas 10 km arba daugiau
nėra debesų žemiau 1500 m ir nėra kamuolinių lietaus debesų

METAR: HESN 221700Z 36011KT CAVOK 30/05 Q1016 NOSIG

Laikas: 21:11 (19:11 UTC)

Prognozė

Ataskaita buvo paskelbta 2 valandos ir 11 minutes, ne 17:00 UTC
Prognozė galioja nuo 22 metu 18 UTC su 23 metu 24 UTC
Vėjas 15 kt iš Šiaurės/Šiaurės Vakarų
Matomumas 10 km arba daugiau
nėra debesų žemiau 1500 m ir nėra kamuolinių lietaus debesų

TAF: HESN 221700Z 2218/2324 34015KT CAVOK

Orai ataskaitas ir orų prognozės (METAR, TAF).

turimą stotys yra geltonos ir raudonos taškus žemėlapyje.

Perkelti pele per norėdami pamatyti stoties vardą.

Tada spustelėkite, norėdami matyti oro stebėjimo ir prognozės.

Norėdami pakeisti žemėlapį: spustelėkite ant žalios mygtukų su juodo kryžiaus žemyn,; žalią mygtuką su brūkšneliu, jei norite nutolinti; arba žalių rodyklių gretimoms žemėlapius.


METAR-TAF: